createdAt,value
2022-09-07T00:01:26.036Z,86.19
2022-09-07T00:03:57.061Z,85.38
2022-09-07T00:06:24.300Z,85.88
2022-09-07T00:08:51.394Z,85.27
2022-09-07T00:11:19.073Z,85.75
2022-09-07T00:13:46.875Z,85.33
2022-09-07T00:16:15.374Z,85.35
2022-09-07T00:18:45.831Z,84.62
2022-09-07T00:21:13.734Z,84.41
2022-09-07T00:23:40.914Z,84.38
2022-09-07T00:26:12.241Z,84.56
2022-09-07T00:28:39.537Z,83.54
2022-09-07T00:31:33.232Z,84.73
2022-09-07T00:34:01.401Z,85.06
2022-09-07T00:36:28.687Z,85.02
2022-09-07T00:38:55.803Z,84.01
2022-09-07T00:41:23.129Z,84.68
2022-09-07T00:43:51.141Z,84.36
2022-09-07T00:46:22.447Z,84.60
2022-09-07T00:48:52.169Z,84.01
2022-09-07T00:51:21.759Z,85.07
2022-09-07T00:53:53.716Z,85.40
2022-09-07T00:56:21.969Z,84.56
2022-09-07T00:58:49.048Z,85.62
2022-09-07T01:01:17.357Z,84.41
2022-09-07T01:03:45.785Z,87.45
2022-09-07T01:06:17.725Z,89.41
2022-09-07T01:08:45.045Z,89.42
2022-09-07T01:11:14.611Z,90.47
2022-09-07T01:13:42.184Z,89.64
2022-09-07T01:16:15.579Z,88.55
2022-09-07T01:19:01.802Z,88.76
2022-09-07T01:21:35.213Z,88.25
2022-09-07T01:24:02.330Z,88.41
2022-09-07T01:26:45.250Z,88.20
2022-09-07T01:29:18.517Z,87.49
2022-09-07T01:31:51.586Z,87.92
2022-09-07T01:34:22.430Z,87.74
2022-09-07T01:37:01.589Z,87.63
2022-09-07T01:39:30.495Z,86.81
2022-09-07T01:42:01.769Z,86.82
2022-09-07T01:44:28.902Z,86.58
2022-09-07T01:47:03.025Z,86.99
2022-09-07T01:49:39.409Z,87.56
2022-09-07T01:52:08.181Z,87.09
2022-09-07T01:54:38.179Z,87.65
2022-09-07T01:57:15.950Z,87.81
2022-09-07T02:00:04.510Z,87.43
2022-09-07T02:02:33.589Z,87.52
2022-09-07T02:05:03.905Z,87.68
2022-09-07T02:07:35.580Z,87.45
2022-09-07T02:10:04.625Z,87.38
2022-09-07T02:12:40.945Z,87.96
2022-09-07T02:15:14.393Z,88.12
2022-09-07T02:17:42.841Z,88.17
2022-09-07T02:20:11.671Z,88.67
2022-09-07T02:22:39.755Z,88.60
2022-09-07T02:25:07.142Z,88.03
2022-09-07T02:27:36.106Z,88.07
2022-09-07T02:30:03.381Z,87.77
2022-09-07T02:32:30.640Z,88.34
2022-09-07T02:34:57.763Z,88.16
2022-09-07T02:37:24.854Z,88.34
2022-09-07T02:39:52.554Z,88.47
2022-09-07T02:42:19.886Z,87.51
2022-09-07T02:44:48.151Z,88.13
2022-09-07T02:47:31.201Z,88.29
2022-09-07T02:50:17.130Z,88.16
2022-09-07T02:52:53.357Z,88.74
2022-09-07T02:55:20.409Z,88.31
2022-09-07T02:57:59.737Z,88.72
2022-09-07T03:00:26.922Z,88.89
2022-09-07T03:03:03.428Z,88.55
2022-09-07T03:05:50.289Z,88.52
2022-09-07T03:08:21.526Z,87.93
2022-09-07T03:10:49.584Z,87.25
2022-09-07T03:13:24.402Z,87.41
2022-09-07T03:15:55.692Z,87.79
2022-09-07T03:18:23.822Z,87.32
2022-09-07T03:20:51.059Z,87.47
2022-09-07T03:23:18.184Z,87.50
2022-09-07T03:25:45.440Z,87.08
2022-09-07T03:28:12.530Z,86.79
2022-09-07T03:30:44.205Z,86.86
2022-09-07T03:33:11.522Z,86.95
2022-09-07T03:35:39.799Z,87.71
2022-09-07T03:38:06.927Z,88.09
2022-09-07T03:40:34.342Z,87.89
2022-09-07T03:43:01.600Z,87.99
2022-09-07T03:45:28.734Z,87.81
2022-09-07T03:47:55.817Z,87.81
2022-09-07T03:50:24.465Z,87.93
2022-09-07T03:52:51.664Z,87.71
2022-09-07T03:55:18.753Z,87.71
2022-09-07T03:57:45.923Z,87.71
2022-09-07T04:00:13.348Z,87.69
2022-09-07T04:02:40.965Z,87.51
2022-09-07T04:05:08.360Z,86.86
2022-09-07T04:07:35.447Z,86.75
2022-09-07T04:10:03.162Z,87.05
2022-09-07T04:12:30.330Z,87.21
2022-09-07T04:14:57.584Z,87.12
2022-09-07T04:17:24.709Z,86.11
2022-09-07T04:19:52.485Z,86.24
2022-09-07T04:22:19.549Z,85.60
2022-09-07T04:24:46.748Z,86.85
2022-09-07T04:27:13.824Z,86.94
2022-09-07T04:29:41.804Z,85.71
2022-09-07T04:32:15.693Z,85.78
2022-09-07T04:34:43.137Z,85.28
2022-09-07T04:37:10.206Z,84.26
2022-09-07T04:39:37.484Z,84.96
2022-09-07T04:42:04.669Z,84.99
2022-09-07T04:44:31.886Z,84.37
2022-09-07T04:46:58.985Z,83.56
2022-09-07T04:49:26.093Z,82.58
2022-09-07T04:51:53.149Z,82.48
2022-09-07T04:54:20.203Z,82.58
2022-09-07T04:56:47.477Z,78.99
2022-09-07T04:59:14.569Z,79.71
2022-09-07T05:01:41.754Z,81.29
2022-09-07T05:04:08.930Z,79.19
2022-09-07T05:06:37.972Z,78.13
2022-09-07T05:09:05.059Z,77.83
2022-09-07T05:11:32.233Z,77.01
2022-09-07T05:13:59.863Z,75.84
2022-09-07T05:16:27.329Z,75.21
2022-09-07T05:18:55.826Z,74.16
2022-09-07T05:21:23.895Z,75.08
2022-09-07T05:23:51.458Z,74.37
2022-09-07T05:26:18.678Z,75.80
2022-09-07T05:28:45.911Z,74.54
2022-09-07T05:36:40.781Z,73.21
2022-09-07T05:39:07.956Z,72.96
2022-09-07T05:41:35.350Z,73.90
2022-09-07T05:46:51.411Z,70.91
2022-09-07T05:49:18.873Z,68.87
2022-09-07T05:51:47.070Z,71.45
2022-09-07T05:54:14.315Z,70.48
2022-09-07T05:56:41.401Z,69.56
2022-09-07T05:59:08.507Z,68.92
2022-09-07T06:01:36.024Z,68.76
2022-09-07T06:04:03.125Z,68.24
2022-09-07T06:06:30.269Z,66.67
2022-09-07T06:08:57.816Z,64.83
2022-09-07T06:11:25.459Z,67.86
2022-09-07T06:13:52.830Z,64.56
2022-09-07T06:16:20.318Z,64.56
2022-09-07T06:18:48.234Z,66.09
2022-09-07T06:21:16.196Z,65.55
2022-09-07T06:23:43.595Z,65.65
2022-09-07T06:26:10.872Z,64.14
2022-09-07T06:28:38.785Z,63.30
2022-09-07T06:31:05.996Z,63.29
2022-09-07T06:33:34.154Z,62.35
2022-09-07T06:36:02.178Z,61.58
2022-09-07T06:38:31.829Z,59.96
2022-09-07T06:43:57.105Z,60.97
2022-09-07T06:49:12.165Z,57.64
2022-09-07T06:51:39.247Z,61.61
2022-09-07T06:56:53.621Z,57.32
2022-09-07T06:59:20.971Z,61.44
2022-09-07T07:01:48.062Z,58.27
2022-09-07T07:04:15.186Z,58.25
2022-09-07T07:06:42.555Z,54.89
2022-09-07T07:09:10.950Z,60.58
2022-09-07T07:11:38.266Z,56.47
2022-09-07T07:14:05.525Z,55.99
2022-09-07T07:16:33.045Z,54.84
2022-09-07T07:19:00.163Z,54.18
2022-09-07T07:21:38.368Z,52.44
2022-09-07T07:24:14.884Z,51.83
2022-09-07T07:26:43.999Z,52.04
2022-09-07T07:29:12.107Z,49.54
2022-09-07T07:31:40.064Z,47.86
2022-09-07T07:34:07.543Z,50.76
2022-09-07T07:36:35.676Z,51.33
2022-09-07T07:39:03.664Z,49.09
2022-09-07T07:44:18.777Z,51.89
2022-09-07T07:46:52.247Z,50.75
2022-09-07T07:49:19.532Z,52.30
2022-09-07T07:54:36.836Z,49.67
2022-09-07T07:57:04.603Z,50.09
2022-09-07T07:59:31.665Z,43.61
2022-09-07T08:02:04.424Z,44.32
2022-09-07T08:04:32.484Z,44.19
2022-09-07T08:06:59.995Z,42.59
2022-09-07T08:09:27.098Z,41.79
2022-09-07T08:11:54.208Z,40.41
2022-09-07T08:14:21.960Z,42.23
2022-09-07T08:16:48.998Z,40.36
2022-09-07T08:19:16.122Z,38.05
2022-09-07T08:21:43.164Z,35.74
2022-09-07T08:24:11.951Z,32.77
2022-09-07T08:26:39.302Z,31.44
2022-09-07T08:29:06.338Z,31.78
2022-09-07T08:31:34.373Z,28.86
2022-09-07T08:34:02.113Z,29.30
2022-09-07T08:36:31.813Z,28.50
2022-09-07T08:39:00.015Z,28.00
2022-09-07T08:41:40.630Z,29.07
2022-09-07T08:44:19.951Z,26.71
2022-09-07T08:46:56.628Z,26.94
2022-09-07T08:49:30.570Z,23.52
2022-09-07T08:52:01.152Z,23.57
2022-09-07T08:54:28.316Z,22.81
2022-09-07T08:59:44.050Z,25.29
2022-09-07T09:02:32.666Z,23.41
2022-09-07T09:05:18.040Z,22.77
2022-09-07T09:07:59.554Z,22.69
2022-09-07T09:10:46.484Z,23.22
2022-09-07T09:13:18.501Z,22.46
2022-09-07T09:15:52.373Z,22.39
2022-09-07T09:18:38.442Z,22.83
2022-09-07T09:21:07.974Z,23.24
2022-09-07T09:23:36.954Z,23.33
2022-09-07T09:26:10.011Z,23.32
2022-09-07T09:28:39.025Z,25.84
2022-09-07T09:31:06.859Z,28.03
2022-09-07T09:33:34.175Z,29.69
2022-09-07T09:36:01.466Z,30.17
2022-09-07T09:38:34.878Z,27.89
2022-09-07T09:41:05.753Z,25.63
2022-09-07T09:43:33.153Z,24.13
2022-09-07T09:46:15.633Z,23.11
2022-09-07T09:48:42.777Z,22.60
2022-09-07T09:54:17.268Z,24.46
2022-09-07T09:56:44.892Z,23.74
2022-09-07T10:05:25.972Z,21.35
2022-09-07T10:07:53.832Z,20.36
2022-09-07T10:10:20.978Z,22.88
2022-09-07T10:12:48.118Z,24.36
2022-09-07T10:15:29.484Z,24.17
2022-09-07T10:17:57.119Z,23.25
2022-09-07T10:20:31.902Z,23.38
2022-09-07T10:22:59.137Z,22.00
2022-09-07T10:25:27.904Z,21.96
2022-09-07T10:28:02.412Z,21.87
2022-09-07T10:30:29.815Z,21.27
2022-09-07T10:33:06.571Z,20.26
2022-09-07T10:35:34.585Z,21.27
2022-09-07T10:38:07.772Z,21.67
2022-09-07T10:40:38.581Z,21.63
2022-09-07T10:43:24.603Z,22.02
2022-09-07T10:45:57.646Z,22.93
2022-09-07T10:48:24.735Z,24.40
2022-09-07T10:51:05.125Z,26.57
2022-09-07T10:57:13.379Z,26.96
2022-09-07T11:03:24.951Z,27.71
2022-09-07T11:05:45.225Z,28.30
2022-09-07T11:08:18.540Z,27.56
2022-09-07T11:10:45.922Z,29.62
2022-09-07T11:13:31.713Z,30.26
2022-09-07T11:16:00.658Z,29.24
2022-09-07T11:18:28.963Z,31.03
2022-09-07T11:20:57.750Z,31.62
2022-09-07T11:23:42.984Z,31.26
2022-09-07T11:26:16.081Z,30.43
2022-09-07T11:28:44.702Z,31.96
2022-09-07T11:31:19.760Z,32.25
2022-09-07T11:34:23.796Z,32.64
2022-09-07T11:36:36.332Z,30.85
2022-09-07T11:39:03.590Z,30.32
2022-09-07T11:41:31.815Z,30.19
2022-09-07T11:43:58.819Z,28.59
2022-09-07T11:46:32.337Z,26.03
2022-09-07T11:48:59.525Z,24.51
2022-09-07T11:51:42.640Z,23.75
2022-09-07T11:54:18.600Z,25.37
2022-09-07T11:56:46.171Z,26.90
2022-09-07T11:59:25.507Z,26.20
2022-09-07T12:01:55.380Z,24.78
2022-09-07T12:04:41.058Z,23.03
2022-09-07T12:07:12.238Z,23.20
2022-09-07T12:09:59.667Z,22.45
2022-09-07T12:12:37.503Z,23.56
2022-09-07T12:15:24.857Z,23.64
2022-09-07T12:17:54.944Z,27.40
2022-09-07T12:20:24.141Z,27.84
2022-09-07T12:23:07.468Z,26.11
2022-09-07T12:25:34.939Z,25.48
2022-09-07T12:28:02.110Z,24.91
2022-09-07T12:30:30.698Z,23.28
2022-09-07T12:33:04.449Z,23.80
2022-09-07T12:35:33.484Z,23.72
2022-09-07T12:38:01.194Z,24.07
2022-09-07T12:40:32.214Z,24.86
2022-09-07T12:43:14.481Z,23.62
2022-09-07T12:45:42.234Z,24.57
2022-09-07T12:48:15.244Z,23.58
2022-09-07T12:51:01.111Z,26.02
2022-09-07T12:53:46.481Z,27.57
2022-09-07T12:56:19.602Z,26.89
2022-09-07T12:58:59.286Z,25.76
2022-09-07T13:01:30.468Z,24.71
2022-09-07T13:04:12.927Z,23.82
2022-09-07T13:09:36.675Z,25.38
2022-09-07T13:12:05.051Z,26.76
2022-09-07T13:14:33.986Z,27.11
2022-09-07T13:17:26.413Z,25.78
2022-09-07T13:19:53.639Z,23.82
2022-09-07T13:22:32.799Z,25.18
2022-09-07T13:25:24.759Z,23.58
2022-09-07T13:28:10.951Z,23.59
2022-09-07T13:31:10.257Z,22.61
2022-09-07T13:33:44.813Z,22.50
2022-09-07T13:36:30.740Z,21.55
2022-09-07T13:38:57.826Z,21.13
2022-09-07T13:41:27.256Z,21.27
2022-09-07T13:43:57.795Z,22.64
2022-09-07T13:46:31.219Z,23.74
2022-09-07T13:49:01.281Z,24.49
2022-09-07T13:51:29.507Z,23.97
2022-09-07T13:54:01.094Z,23.12
2022-09-07T13:56:45.016Z,22.68
2022-09-07T13:59:12.831Z,25.27
2022-09-07T14:01:42.773Z,25.94
2022-09-07T14:04:21.453Z,26.34
2022-09-07T14:06:48.523Z,25.32
2022-09-07T14:09:19.037Z,25.11
2022-09-07T14:11:47.349Z,25.50
2022-09-07T14:14:20.978Z,24.99
2022-09-07T14:17:01.688Z,23.59
2022-09-07T14:19:29.729Z,23.39
2022-09-07T14:22:00.709Z,23.88
2022-09-07T14:24:37.725Z,24.13
2022-09-07T14:27:05.207Z,23.66
2022-09-07T14:29:36.175Z,23.36
2022-09-07T14:32:03.880Z,23.58
2022-09-07T14:34:32.777Z,22.70
2022-09-07T14:37:01.711Z,22.78
2022-09-07T14:39:29.871Z,23.51
2022-09-07T14:41:57.688Z,23.75
2022-09-07T14:44:28.851Z,24.72
2022-09-07T14:46:57.169Z,25.32
2022-09-07T14:49:24.518Z,26.10
2022-09-07T14:51:51.972Z,27.23
2022-09-07T14:54:29.333Z,28.00
2022-09-07T14:57:07.126Z,29.50
2022-09-07T14:59:46.794Z,29.15
2022-09-07T15:02:22.016Z,29.11
2022-09-07T15:04:50.016Z,29.85
2022-09-07T15:07:36.215Z,28.48
2022-09-07T15:10:16.355Z,28.91
2022-09-07T15:12:44.216Z,28.63
2022-09-07T15:15:22.108Z,28.65
2022-09-07T15:17:49.439Z,28.80
2022-09-07T15:20:35.413Z,28.30
2022-09-07T15:23:08.707Z,28.92
2022-09-07T15:25:36.060Z,30.20
2022-09-07T15:28:03.129Z,30.43
2022-09-07T15:30:30.509Z,32.35
2022-09-07T15:32:58.047Z,34.25
2022-09-07T15:35:25.115Z,33.80
2022-09-07T15:41:03.885Z,32.73
2022-09-07T15:43:30.588Z,32.71
2022-09-07T15:45:57.862Z,33.38
2022-09-07T15:48:25.617Z,35.70
2022-09-07T15:51:00.226Z,34.09
2022-09-07T15:56:14.847Z,35.31
2022-09-07T15:58:43.688Z,39.07
2022-09-07T16:03:58.250Z,39.15
2022-09-07T16:06:26.301Z,39.86
2022-09-07T16:08:53.536Z,40.73
2022-09-07T16:11:25.820Z,38.73
2022-09-07T16:13:56.372Z,41.23
2022-09-07T16:17:25.388Z,41.28
2022-09-07T16:19:14.431Z,42.32
2022-09-07T16:21:41.669Z,41.71
2022-09-07T16:24:10.135Z,43.63
2022-09-07T16:26:37.623Z,42.64
2022-09-07T16:29:04.756Z,43.64
2022-09-07T16:31:32.028Z,45.01
2022-09-07T16:34:00.806Z,45.41
2022-09-07T16:36:27.849Z,46.91
2022-09-07T16:38:55.562Z,47.57
2022-09-07T16:41:24.493Z,46.35
2022-09-07T16:43:51.710Z,45.94
2022-09-07T16:46:19.658Z,46.42
2022-09-07T16:48:46.915Z,47.47
2022-09-07T16:51:14.622Z,46.54
2022-09-07T16:53:42.314Z,46.80
2022-09-07T16:56:10.198Z,48.31
2022-09-07T16:58:38.584Z,48.55
2022-09-07T17:01:06.604Z,47.85
2022-09-07T17:03:36.682Z,48.86
2022-09-07T17:06:04.333Z,48.89
2022-09-07T17:08:32.277Z,51.33
2022-09-07T17:11:03.624Z,51.96
2022-09-07T17:13:32.174Z,53.30
2022-09-07T17:16:06.490Z,54.14
2022-09-07T17:21:21.777Z,54.87
2022-09-07T17:23:54.857Z,55.82
2022-09-07T17:26:26.047Z,57.49
2022-09-07T17:28:53.872Z,58.19
2022-09-07T17:34:09.880Z,59.36
2022-09-07T17:36:37.031Z,59.03
2022-09-07T17:39:20.076Z,59.74
2022-09-07T17:41:47.809Z,60.93
2022-09-07T17:44:15.168Z,61.06
2022-09-07T17:46:42.390Z,61.53
2022-09-07T17:49:12.342Z,61.88
2022-09-07T17:51:39.682Z,62.65
2022-09-07T17:54:10.973Z,62.24
2022-09-07T17:56:39.379Z,62.80
2022-09-07T18:01:54.267Z,63.69
2022-09-07T18:04:21.589Z,64.62
2022-09-07T18:06:48.937Z,64.45
2022-09-07T18:09:16.162Z,63.87
2022-09-07T18:11:47.130Z,64.78
2022-09-07T18:14:15.210Z,65.13
2022-09-07T18:16:42.934Z,64.96
2022-09-07T18:19:10.797Z,65.07
2022-09-07T18:21:38.063Z,65.80
2022-09-07T18:24:07.457Z,66.21
2022-09-07T18:26:35.574Z,65.65
2022-09-07T18:29:04.791Z,66.12
2022-09-07T18:31:34.031Z,66.67
2022-09-07T18:34:02.160Z,66.22
2022-09-07T18:36:29.380Z,66.08
2022-09-07T18:38:56.415Z,65.97
2022-09-07T18:41:24.877Z,66.81
2022-09-07T18:43:52.795Z,67.05
2022-09-07T18:46:20.800Z,67.23
2022-09-07T18:48:47.894Z,67.31
2022-09-07T18:51:15.099Z,67.10
2022-09-07T18:53:42.226Z,67.27
2022-09-07T18:56:19.290Z,67.71
2022-09-07T18:58:46.666Z,66.71
2022-09-07T19:01:14.630Z,67.36
2022-09-07T19:03:42.776Z,68.32
2022-09-07T19:06:13.064Z,67.33
2022-09-07T19:08:41.329Z,67.29
2022-09-07T19:11:08.370Z,67.94
2022-09-07T19:13:35.765Z,68.25
2022-09-07T19:16:21.063Z,68.14
2022-09-07T19:18:49.032Z,68.27
2022-09-07T19:21:17.088Z,68.44
2022-09-07T19:23:44.175Z,68.87
2022-09-07T19:26:11.306Z,68.92
2022-09-07T19:28:38.906Z,68.82
2022-09-07T19:31:06.444Z,68.75
2022-09-07T19:33:35.115Z,67.97
2022-09-07T19:36:05.827Z,67.71
2022-09-07T19:38:33.082Z,68.28
2022-09-07T19:41:00.579Z,68.22
2022-09-07T19:43:31.946Z,68.30
2022-09-07T19:45:59.955Z,68.77
2022-09-07T19:48:27.401Z,69.29
2022-09-07T19:50:54.514Z,69.51
2022-09-07T19:53:21.611Z,69.79
2022-09-07T19:55:48.754Z,69.98
2022-09-07T19:58:16.087Z,69.54
2022-09-07T20:00:43.187Z,69.20
2022-09-07T20:03:10.721Z,70.13
2022-09-07T20:05:38.588Z,69.33
2022-09-07T20:08:05.890Z,69.09
2022-09-07T20:10:34.304Z,69.79
2022-09-07T20:13:02.094Z,69.20
2022-09-07T20:15:30.754Z,69.32
2022-09-07T20:17:57.800Z,70.09
2022-09-07T20:20:25.219Z,69.52
2022-09-07T20:22:52.351Z,69.46
2022-09-07T20:25:19.597Z,69.86
2022-09-07T20:27:46.614Z,69.73
2022-09-07T20:30:13.796Z,70.31
2022-09-07T20:32:41.011Z,70.31
2022-09-07T20:35:08.256Z,69.96
2022-09-07T20:37:35.688Z,70.46
2022-09-07T20:40:02.950Z,70.31
2022-09-07T20:42:30.349Z,70.68
2022-09-07T20:44:57.563Z,70.94
2022-09-07T20:47:24.684Z,70.67
2022-09-07T20:49:52.238Z,70.77
2022-09-07T20:52:19.779Z,70.25
2022-09-07T20:54:46.945Z,70.27
2022-09-07T20:57:14.204Z,70.84
2022-09-07T20:59:41.323Z,70.79
2022-09-07T21:02:11.411Z,67.66
2022-09-07T21:04:38.869Z,67.81
2022-09-07T21:07:07.115Z,64.83
2022-09-07T21:09:34.264Z,61.81
2022-09-07T21:12:01.478Z,64.37
2022-09-07T21:14:28.886Z,66.10
2022-09-07T21:16:56.705Z,65.33
2022-09-07T21:19:23.745Z,65.45
2022-09-07T21:21:50.841Z,66.82
2022-09-07T21:24:18.959Z,64.57
2022-09-07T21:26:46.254Z,64.94
2022-09-07T21:29:15.209Z,65.14
2022-09-07T21:31:42.287Z,61.55
2022-09-07T21:34:10.748Z,62.03
2022-09-07T21:36:38.678Z,62.35
2022-09-07T21:39:05.966Z,62.13
2022-09-07T21:41:33.676Z,61.97
2022-09-07T21:44:01.448Z,60.51
2022-09-07T21:46:30.472Z,57.48
2022-09-07T21:48:58.052Z,58.07
2022-09-07T21:51:25.447Z,58.13
2022-09-07T21:53:56.343Z,56.29
2022-09-07T21:56:23.584Z,55.30
2022-09-07T21:58:55.174Z,54.45
2022-09-07T22:01:22.791Z,54.37
2022-09-07T22:03:53.311Z,54.29
2022-09-07T22:06:20.364Z,53.51
2022-09-07T22:08:47.397Z,53.72
2022-09-07T22:11:15.757Z,54.58
2022-09-07T22:13:43.530Z,55.03
2022-09-07T22:16:12.610Z,54.99
2022-09-07T22:18:42.735Z,55.00
2022-09-07T22:21:10.796Z,55.34
2022-09-07T22:23:38.588Z,55.42
2022-09-07T22:26:06.081Z,54.75
2022-09-07T22:28:33.587Z,54.96
2022-09-07T22:31:11.011Z,56.15
2022-09-07T22:33:38.432Z,56.87
2022-09-07T22:36:11.786Z,56.77
2022-09-07T22:38:38.920Z,56.62
2022-09-07T22:41:09.596Z,56.05
2022-09-07T22:43:36.834Z,56.05
2022-09-07T22:46:04.132Z,54.82
2022-09-07T22:48:31.355Z,53.73
2022-09-07T22:51:01.390Z,52.61
2022-09-07T22:53:29.358Z,52.87
2022-09-07T22:55:57.044Z,53.18
2022-09-07T22:58:24.198Z,52.04
2022-09-07T23:00:51.371Z,51.68
2022-09-07T23:03:18.683Z,51.39
2022-09-07T23:05:46.925Z,51.54
2022-09-07T23:08:14.110Z,51.63
2022-09-07T23:10:41.152Z,52.70
2022-09-07T23:13:16.539Z,52.69
2022-09-07T23:15:44.012Z,52.28
2022-09-07T23:18:18.168Z,52.81
2022-09-07T23:20:45.323Z,52.45
2022-09-07T23:23:13.353Z,52.53
2022-09-07T23:25:40.889Z,52.21
2022-09-07T23:28:09.838Z,52.48
2022-09-07T23:30:40.044Z,52.46
2022-09-07T23:33:07.226Z,51.50
2022-09-07T23:35:35.225Z,51.51
2022-09-07T23:38:02.515Z,51.75
2022-09-07T23:40:30.507Z,51.45
2022-09-07T23:42:57.973Z,52.40
2022-09-07T23:45:25.459Z,53.42
2022-09-07T23:47:52.695Z,54.43
2022-09-07T23:50:19.934Z,56.42
2022-09-07T23:52:47.242Z,57.81
2022-09-07T23:55:14.423Z,57.99
2022-09-07T23:57:41.433Z,57.41
